sensor_id;sensor_type;location;lat;lon;timestamp;pressure;altitude;pressure_sealevel;temperature;humidity
78613;BME280;67933;51.060;3.638;2023-07-16T00:00:16;100996.09;;;14.87;78.16
78613;BME280;67933;51.060;3.638;2023-07-16T00:02:43;101001.78;;;14.83;78.08
78613;BME280;67933;51.060;3.638;2023-07-16T00:05:09;101002.97;;;14.79;78.26
78613;BME280;67933;51.060;3.638;2023-07-16T00:07:34;101004.66;;;14.80;78.34
78613;BME280;67933;51.060;3.638;2023-07-16T00:10:00;101016.66;;;14.74;78.67
78613;BME280;67933;51.060;3.638;2023-07-16T00:12:25;101011.75;;;14.68;79.17
78613;BME280;67933;51.060;3.638;2023-07-16T00:14:50;101014.97;;;14.60;79.67
78613;BME280;67933;51.060;3.638;2023-07-16T00:17:16;100998.75;;;14.51;80.09
78613;BME280;67933;51.060;3.638;2023-07-16T00:19:41;101015.53;;;14.53;80.39
78613;BME280;67933;51.060;3.638;2023-07-16T00:22:07;101006.88;;;14.49;80.33
78613;BME280;67933;51.060;3.638;2023-07-16T00:24:32;101008.03;;;14.58;80.17
78613;BME280;67933;51.060;3.638;2023-07-16T00:26:58;101002.16;;;14.66;79.95
78613;BME280;67933;51.060;3.638;2023-07-16T00:29:23;101008.53;;;14.76;79.61
78613;BME280;67933;51.060;3.638;2023-07-16T00:31:49;101013.88;;;14.76;79.67
78613;BME280;67933;51.060;3.638;2023-07-16T00:34:14;101019.53;;;14.71;79.85
78613;BME280;67933;51.060;3.638;2023-07-16T00:36:39;101017.31;;;14.65;80.26
78613;BME280;67933;51.060;3.638;2023-07-16T00:39:05;101016.34;;;14.66;80.43
78613;BME280;67933;51.060;3.638;2023-07-16T00:41:30;101016.91;;;14.58;80.76
78613;BME280;67933;51.060;3.638;2023-07-16T00:43:56;101019.69;;;14.57;81.23
78613;BME280;67933;51.060;3.638;2023-07-16T00:46:21;101017.34;;;14.52;81.56
78613;BME280;67933;51.060;3.638;2023-07-16T00:48:47;101016.38;;;14.53;81.78
78613;BME280;67933;51.060;3.638;2023-07-16T00:51:13;101024.16;;;14.56;81.51
78613;BME280;67933;51.060;3.638;2023-07-16T00:53:41;101014.69;;;14.52;81.80
78613;BME280;67933;51.060;3.638;2023-07-16T00:56:08;101013.63;;;14.55;82.12
78613;BME280;67933;51.060;3.638;2023-07-16T00:58:34;101022.88;;;14.62;81.66
78613;BME280;67933;51.060;3.638;2023-07-16T01:00:59;101011.31;;;14.74;80.73
78613;BME280;67933;51.060;3.638;2023-07-16T01:03:25;101009.59;;;14.73;80.20
78613;BME280;67933;51.060;3.638;2023-07-16T01:08:42;101023.09;;;14.95;78.37
78613;BME280;67933;51.060;3.638;2023-07-16T01:11:10;101022.13;;;15.09;76.96
78613;BME280;67933;51.060;3.638;2023-07-16T01:13:36;101033.19;;;15.16;76.23
78613;BME280;67933;51.060;3.638;2023-07-16T01:16:02;101023.97;;;15.20;75.84
78613;BME280;67933;51.060;3.638;2023-07-16T01:18:27;101023.75;;;15.23;75.17
78613;BME280;67933;51.060;3.638;2023-07-16T01:20:52;101027.41;;;15.22;75.14
78613;BME280;67933;51.060;3.638;2023-07-16T01:23:29;101026.44;;;15.23;74.31
78613;BME280;67933;51.060;3.638;2023-07-16T01:31:08;101032.38;;;15.63;69.45
78613;BME280;67933;51.060;3.638;2023-07-16T01:33:35;101026.91;;;15.75;68.50
78613;BME280;67933;51.060;3.638;2023-07-16T01:36:02;101029.00;;;15.83;67.35
78613;BME280;67933;51.060;3.638;2023-07-16T01:38:28;101033.88;;;15.89;67.00
78613;BME280;67933;51.060;3.638;2023-07-16T01:40:53;101033.19;;;15.98;66.65
78613;BME280;67933;51.060;3.638;2023-07-16T01:43:19;101030.16;;;16.14;65.42
78613;BME280;67933;51.060;3.638;2023-07-16T01:45:44;101034.94;;;16.22;65.64
78613;BME280;67933;51.060;3.638;2023-07-16T01:48:34;101046.25;;;16.25;65.00
78613;BME280;67933;51.060;3.638;2023-07-16T01:51:01;101040.41;;;16.31;64.66
78613;BME280;67933;51.060;3.638;2023-07-16T01:53:26;101042.13;;;16.32;64.56
78613;BME280;67933;51.060;3.638;2023-07-16T01:55:52;101040.41;;;16.31;64.55
78613;BME280;67933;51.060;3.638;2023-07-16T01:58:17;101041.75;;;16.26;65.38
78613;BME280;67933;51.060;3.638;2023-07-16T02:00:43;101037.72;;;16.20;65.61
78613;BME280;67933;51.060;3.638;2023-07-16T02:03:09;101046.22;;;16.14;66.41
78613;BME280;67933;51.060;3.638;2023-07-16T02:05:34;101035.50;;;16.03;66.08
78613;BME280;67933;51.060;3.638;2023-07-16T02:08:00;101053.56;;;15.88;66.52
78613;BME280;67933;51.060;3.638;2023-07-16T02:10:25;101057.31;;;15.74;67.05
78613;BME280;67933;51.060;3.638;2023-07-16T02:12:51;101064.38;;;15.75;67.30
78613;BME280;67933;51.060;3.638;2023-07-16T02:15:16;101062.19;;;15.81;66.67
78613;BME280;67933;51.060;3.638;2023-07-16T02:17:43;101062.34;;;15.90;66.30
78613;BME280;67933;51.060;3.638;2023-07-16T02:20:09;101055.06;;;15.92;66.65
78613;BME280;67933;51.060;3.638;2023-07-16T02:22:38;101064.28;;;15.88;66.20
78613;BME280;67933;51.060;3.638;2023-07-16T02:25:04;101066.50;;;15.94;65.85
78613;BME280;67933;51.060;3.638;2023-07-16T02:27:29;101062.97;;;15.94;65.88
78613;BME280;67933;51.060;3.638;2023-07-16T02:29:55;101065.50;;;15.95;65.20
78613;BME280;67933;51.060;3.638;2023-07-16T02:32:20;101063.44;;;15.88;65.80
78613;BME280;67933;51.060;3.638;2023-07-16T02:34:46;101071.06;;;15.81;65.69
78613;BME280;67933;51.060;3.638;2023-07-16T02:37:11;101073.63;;;15.71;66.28
78613;BME280;67933;51.060;3.638;2023-07-16T02:39:38;101064.66;;;15.60;66.79
78613;BME280;67933;51.060;3.638;2023-07-16T02:42:04;101067.69;;;15.55;66.05
78613;BME280;67933;51.060;3.638;2023-07-16T02:44:29;101070.91;;;15.48;66.34
78613;BME280;67933;51.060;3.638;2023-07-16T02:46:55;101064.31;;;15.40;66.89
78613;BME280;67933;51.060;3.638;2023-07-16T02:49:20;101057.13;;;15.41;65.89
78613;BME280;67933;51.060;3.638;2023-07-16T02:51:46;101074.88;;;15.42;66.33
78613;BME280;67933;51.060;3.638;2023-07-16T02:54:11;101078.00;;;15.36;66.25
78613;BME280;67933;51.060;3.638;2023-07-16T02:56:36;101081.91;;;15.32;67.00
78613;BME280;67933;51.060;3.638;2023-07-16T02:59:02;101083.16;;;15.39;66.31
78613;BME280;67933;51.060;3.638;2023-07-16T03:01:27;101086.44;;;15.43;66.44
78613;BME280;67933;51.060;3.638;2023-07-16T03:03:53;101086.53;;;15.41;65.99
78613;BME280;67933;51.060;3.638;2023-07-16T03:06:18;101084.72;;;15.54;65.71
78613;BME280;67933;51.060;3.638;2023-07-16T03:08:43;101096.56;;;15.63;65.48
78613;BME280;67933;51.060;3.638;2023-07-16T03:11:11;101098.66;;;15.70;64.70
78613;BME280;67933;51.060;3.638;2023-07-16T03:13:36;101099.78;;;15.79;63.75
78613;BME280;67933;51.060;3.638;2023-07-16T03:16:01;101095.16;;;15.81;64.76
78613;BME280;67933;51.060;3.638;2023-07-16T03:18:28;101090.66;;;15.82;64.38
78613;BME280;67933;51.060;3.638;2023-07-16T03:20:54;101096.75;;;15.84;64.53
78613;BME280;67933;51.060;3.638;2023-07-16T03:23:19;101103.06;;;15.83;64.29
78613;BME280;67933;51.060;3.638;2023-07-16T03:25:45;101098.34;;;15.86;64.24
78613;BME280;67933;51.060;3.638;2023-07-16T03:28:10;101108.25;;;15.73;64.98
78613;BME280;67933;51.060;3.638;2023-07-16T03:30:35;101109.56;;;15.67;65.48
78613;BME280;67933;51.060;3.638;2023-07-16T03:33:03;101102.13;;;15.60;65.40
78613;BME280;67933;51.060;3.638;2023-07-16T03:35:28;101099.44;;;15.60;65.14
78613;BME280;67933;51.060;3.638;2023-07-16T03:37:53;101108.22;;;15.49;66.11
78613;BME280;67933;51.060;3.638;2023-07-16T03:40:24;101113.69;;;15.48;65.97
78613;BME280;67933;51.060;3.638;2023-07-16T03:42:50;101105.53;;;15.49;66.06
78613;BME280;67933;51.060;3.638;2023-07-16T03:45:15;101127.69;;;15.51;66.13
78613;BME280;67933;51.060;3.638;2023-07-16T03:47:41;101126.81;;;15.51;65.92
78613;BME280;67933;51.060;3.638;2023-07-16T03:50:07;101124.38;;;15.60;65.92
78613;BME280;67933;51.060;3.638;2023-07-16T03:52:33;101133.41;;;15.70;65.58
78613;BME280;67933;51.060;3.638;2023-07-16T03:54:58;101125.44;;;15.58;66.45
78613;BME280;67933;51.060;3.638;2023-07-16T03:57:24;101135.94;;;15.48;66.71
78613;BME280;67933;51.060;3.638;2023-07-16T03:59:49;101129.56;;;15.38;67.23
78613;BME280;67933;51.060;3.638;2023-07-16T04:02:14;101131.47;;;15.36;67.30
78613;BME280;67933;51.060;3.638;2023-07-16T04:04:40;101128.91;;;15.34;67.63
78613;BME280;67933;51.060;3.638;2023-07-16T04:07:05;101136.63;;;15.26;68.36
78613;BME280;67933;51.060;3.638;2023-07-16T04:09:31;101143.59;;;15.29;68.11
78613;BME280;67933;51.060;3.638;2023-07-16T04:11:56;101156.94;;;15.29;68.26
78613;BME280;67933;51.060;3.638;2023-07-16T04:14:22;101152.81;;;15.25;68.42
78613;BME280;67933;51.060;3.638;2023-07-16T04:16:47;101152.25;;;15.32;68.24
78613;BME280;67933;51.060;3.638;2023-07-16T04:19:12;101160.13;;;15.47;68.15
78613;BME280;67933;51.060;3.638;2023-07-16T04:21:38;101155.09;;;15.55;67.86
78613;BME280;67933;51.060;3.638;2023-07-16T04:24:05;101147.22;;;15.64;67.11
78613;BME280;67933;51.060;3.638;2023-07-16T04:26:30;101155.44;;;15.74;66.81
78613;BME280;67933;51.060;3.638;2023-07-16T04:28:56;101145.88;;;15.83;67.12
78613;BME280;67933;51.060;3.638;2023-07-16T04:31:22;101153.16;;;15.81;67.01
78613;BME280;67933;51.060;3.638;2023-07-16T04:33:47;101146.34;;;15.76;66.83
78613;BME280;67933;51.060;3.638;2023-07-16T04:36:13;101149.78;;;15.66;67.63
78613;BME280;67933;51.060;3.638;2023-07-16T04:38:38;101154.25;;;15.54;68.07
78613;BME280;67933;51.060;3.638;2023-07-16T04:41:03;101161.47;;;15.52;68.03
78613;BME280;67933;51.060;3.638;2023-07-16T04:43:29;101161.81;;;15.60;67.78
78613;BME280;67933;51.060;3.638;2023-07-16T04:45:54;101158.38;;;15.58;68.31
78613;BME280;67933;51.060;3.638;2023-07-16T04:48:19;101155.94;;;15.55;67.87
78613;BME280;67933;51.060;3.638;2023-07-16T04:50:45;101160.56;;;15.53;68.47
78613;BME280;67933;51.060;3.638;2023-07-16T04:53:10;101165.69;;;15.56;68.57
78613;BME280;67933;51.060;3.638;2023-07-16T04:55:37;101176.66;;;15.52;68.84
78613;BME280;67933;51.060;3.638;2023-07-16T04:58:03;101180.03;;;15.55;68.97
78613;BME280;67933;51.060;3.638;2023-07-16T05:00:28;101167.91;;;15.62;68.19
78613;BME280;67933;51.060;3.638;2023-07-16T05:02:53;101182.00;;;15.64;68.55
78613;BME280;67933;51.060;3.638;2023-07-16T05:05:19;101174.50;;;15.69;68.65
78613;BME280;67933;51.060;3.638;2023-07-16T05:07:44;101173.31;;;15.73;68.28
78613;BME280;67933;51.060;3.638;2023-07-16T05:10:10;101175.13;;;15.73;68.84
78613;BME280;67933;51.060;3.638;2023-07-16T05:12:35;101172.13;;;15.77;68.65
78613;BME280;67933;51.060;3.638;2023-07-16T05:15:01;101169.19;;;15.81;69.04
78613;BME280;67933;51.060;3.638;2023-07-16T05:17:26;101173.09;;;15.76;69.17
78613;BME280;67933;51.060;3.638;2023-07-16T05:19:52;101167.94;;;15.73;69.11
78613;BME280;67933;51.060;3.638;2023-07-16T05:22:17;101165.28;;;15.73;69.29
78613;BME280;67933;51.060;3.638;2023-07-16T05:24:42;101176.50;;;15.78;69.04
78613;BME280;67933;51.060;3.638;2023-07-16T05:27:08;101179.19;;;15.78;69.82
78613;BME280;67933;51.060;3.638;2023-07-16T05:29:34;101184.28;;;15.82;69.32
78613;BME280;67933;51.060;3.638;2023-07-16T05:31:59;101193.72;;;15.87;69.30
78613;BME280;67933;51.060;3.638;2023-07-16T05:34:25;101188.84;;;15.92;69.36
78613;BME280;67933;51.060;3.638;2023-07-16T05:36:53;101189.47;;;15.96;69.76
78613;BME280;67933;51.060;3.638;2023-07-16T05:39:18;101189.47;;;15.96;68.89
78613;BME280;67933;51.060;3.638;2023-07-16T05:41:43;101186.56;;;15.99;69.61
78613;BME280;67933;51.060;3.638;2023-07-16T05:44:10;101186.22;;;16.03;69.55
78613;BME280;67933;51.060;3.638;2023-07-16T05:46:35;101202.06;;;16.06;68.70
78613;BME280;67933;51.060;3.638;2023-07-16T05:49:00;101205.13;;;16.13;69.17
78613;BME280;67933;51.060;3.638;2023-07-16T05:51:26;101210.16;;;16.17;68.96
78613;BME280;67933;51.060;3.638;2023-07-16T05:53:52;101221.72;;;16.18;69.21
78613;BME280;67933;51.060;3.638;2023-07-16T05:56:17;101212.47;;;16.22;69.34
78613;BME280;67933;51.060;3.638;2023-07-16T05:58:42;101222.72;;;16.28;68.28
78613;BME280;67933;51.060;3.638;2023-07-16T06:01:08;101225.44;;;16.39;68.19
78613;BME280;67933;51.060;3.638;2023-07-16T06:03:34;101232.22;;;16.32;68.29
78613;BME280;67933;51.060;3.638;2023-07-16T06:05:59;101234.22;;;16.41;68.31
78613;BME280;67933;51.060;3.638;2023-07-16T06:08:24;101225.25;;;16.53;67.90
78613;BME280;67933;51.060;3.638;2023-07-16T06:10:50;101237.13;;;16.62;67.46
78613;BME280;67933;51.060;3.638;2023-07-16T06:13:16;101249.19;;;16.68;67.00
78613;BME280;67933;51.060;3.638;2023-07-16T06:15:42;101246.72;;;16.65;66.98
78613;BME280;67933;51.060;3.638;2023-07-16T06:18:08;101243.59;;;16.82;66.72
78613;BME280;67933;51.060;3.638;2023-07-16T06:20:33;101243.13;;;16.88;66.06
78613;BME280;67933;51.060;3.638;2023-07-16T06:22:58;101241.44;;;16.87;66.36
78613;BME280;67933;51.060;3.638;2023-07-16T06:25:24;101259.44;;;16.85;66.75
78613;BME280;67933;51.060;3.638;2023-07-16T06:27:49;101252.13;;;16.76;66.94
78613;BME280;67933;51.060;3.638;2023-07-16T06:30:15;101258.91;;;16.69;67.27
78613;BME280;67933;51.060;3.638;2023-07-16T06:32:40;101262.03;;;16.98;67.13
78613;BME280;67933;51.060;3.638;2023-07-16T06:35:06;101260.56;;;17.05;67.04
78613;BME280;67933;51.060;3.638;2023-07-16T06:37:31;101258.03;;;17.03;66.72
78613;BME280;67933;51.060;3.638;2023-07-16T06:39:57;101275.00;;;17.26;66.14
78613;BME280;67933;51.060;3.638;2023-07-16T06:42:22;101270.75;;;17.68;64.83
78613;BME280;67933;51.060;3.638;2023-07-16T06:44:47;101256.19;;;18.04;64.24
78613;BME280;67933;51.060;3.638;2023-07-16T06:47:13;101260.25;;;17.87;63.99
78613;BME280;67933;51.060;3.638;2023-07-16T06:49:38;101274.53;;;17.77;64.50
78613;BME280;67933;51.060;3.638;2023-07-16T06:52:04;101261.50;;;17.72;64.60
78613;BME280;67933;51.060;3.638;2023-07-16T06:54:29;101264.66;;;17.77;64.31
78613;BME280;67933;51.060;3.638;2023-07-16T06:56:55;101272.47;;;18.23;63.73
78613;BME280;67933;51.060;3.638;2023-07-16T06:59:20;101278.50;;;19.31;60.16
78613;BME280;67933;51.060;3.638;2023-07-16T07:01:46;101274.78;;;19.22;60.98
78613;BME280;67933;51.060;3.638;2023-07-16T07:04:12;101277.03;;;18.75;61.53
78613;BME280;67933;51.060;3.638;2023-07-16T07:06:37;101275.56;;;19.34;59.44
78613;BME280;67933;51.060;3.638;2023-07-16T07:09:03;101286.34;;;20.04;57.33
78613;BME280;67933;51.060;3.638;2023-07-16T07:11:28;101286.16;;;20.06;57.07
78613;BME280;67933;51.060;3.638;2023-07-16T07:13:54;101283.91;;;19.61;58.69
78613;BME280;67933;51.060;3.638;2023-07-16T07:16:19;101290.66;;;19.86;57.86
78613;BME280;67933;51.060;3.638;2023-07-16T07:18:45;101289.81;;;19.85;58.17
78613;BME280;67933;51.060;3.638;2023-07-16T07:21:10;101290.00;;;19.33;59.13
78613;BME280;67933;51.060;3.638;2023-07-16T07:23:36;101295.69;;;19.39;59.60
78613;BME280;67933;51.060;3.638;2023-07-16T07:26:01;101297.50;;;19.59;58.84
78613;BME280;67933;51.060;3.638;2023-07-16T07:28:27;101291.41;;;20.07;58.26
78613;BME280;67933;51.060;3.638;2023-07-16T07:30:52;101281.59;;;19.87;58.75
78613;BME280;67933;51.060;3.638;2023-07-16T07:33:17;101297.63;;;19.98;57.84
78613;BME280;67933;51.060;3.638;2023-07-16T07:35:43;101302.81;;;20.20;57.64
78613;BME280;67933;51.060;3.638;2023-07-16T07:38:08;101300.81;;;20.13;58.42
78613;BME280;67933;51.060;3.638;2023-07-16T07:40:34;101293.69;;;20.02;57.97
78613;BME280;67933;51.060;3.638;2023-07-16T07:42:59;101301.00;;;19.90;57.67
78613;BME280;67933;51.060;3.638;2023-07-16T07:45:25;101294.13;;;20.17;57.22
78613;BME280;67933;51.060;3.638;2023-07-16T07:47:51;101302.84;;;20.97;56.08
78613;BME280;67933;51.060;3.638;2023-07-16T07:50:16;101309.94;;;20.98;54.85
78613;BME280;67933;51.060;3.638;2023-07-16T07:52:42;101300.91;;;20.51;56.59
78613;BME280;67933;51.060;3.638;2023-07-16T07:55:07;101303.06;;;20.17;58.32
78613;BME280;67933;51.060;3.638;2023-07-16T07:57:33;101299.03;;;19.92;59.41
78613;BME280;67933;51.060;3.638;2023-07-16T07:59:58;101314.50;;;19.60;59.57
78613;BME280;67933;51.060;3.638;2023-07-16T08:02:24;101316.91;;;19.33;60.82
78613;BME280;67933;51.060;3.638;2023-07-16T08:04:51;101318.31;;;19.37;60.72
78613;BME280;67933;51.060;3.638;2023-07-16T08:07:17;101312.25;;;19.35;61.01
78613;BME280;67933;51.060;3.638;2023-07-16T08:09:42;101318.75;;;19.11;62.20
78613;BME280;67933;51.060;3.638;2023-07-16T08:12:08;101306.88;;;19.14;62.78
78613;BME280;67933;51.060;3.638;2023-07-16T08:14:34;101317.84;;;19.01;61.55
78613;BME280;67933;51.060;3.638;2023-07-16T08:16:59;101312.22;;;19.04;61.53
78613;BME280;67933;51.060;3.638;2023-07-16T08:19:24;101319.00;;;19.08;62.66
78613;BME280;67933;51.060;3.638;2023-07-16T08:21:50;101322.75;;;19.17;61.60
78613;BME280;67933;51.060;3.638;2023-07-16T08:24:15;101326.38;;;19.27;61.97
78613;BME280;67933;51.060;3.638;2023-07-16T08:26:41;101326.97;;;19.10;61.37
78613;BME280;67933;51.060;3.638;2023-07-16T08:29:06;101332.47;;;19.08;61.46
78613;BME280;67933;51.060;3.638;2023-07-16T08:31:31;101337.72;;;19.10;61.46
78613;BME280;67933;51.060;3.638;2023-07-16T08:33:57;101329.78;;;19.08;62.26
78613;BME280;67933;51.060;3.638;2023-07-16T08:36:22;101336.47;;;18.93;62.03
78613;BME280;67933;51.060;3.638;2023-07-16T08:38:48;101340.41;;;18.89;61.82
78613;BME280;67933;51.060;3.638;2023-07-16T08:41:14;101346.75;;;18.88;62.22
78613;BME280;67933;51.060;3.638;2023-07-16T08:43:40;101338.09;;;18.84;61.40
78613;BME280;67933;51.060;3.638;2023-07-16T08:46:06;101341.94;;;18.71;62.46
78613;BME280;67933;51.060;3.638;2023-07-16T08:48:32;101352.69;;;18.71;61.79
78613;BME280;67933;51.060;3.638;2023-07-16T08:50:58;101342.72;;;18.62;61.60
78613;BME280;67933;51.060;3.638;2023-07-16T08:53:26;101358.00;;;18.50;63.37
78613;BME280;67933;51.060;3.638;2023-07-16T08:55:52;101354.47;;;18.38;63.68
78613;BME280;67933;51.060;3.638;2023-07-16T08:58:17;101351.91;;;18.37;63.81
78613;BME280;67933;51.060;3.638;2023-07-16T09:00:44;101359.81;;;18.50;63.99
78613;BME280;67933;51.060;3.638;2023-07-16T09:03:13;101364.59;;;18.57;64.39
78613;BME280;67933;51.060;3.638;2023-07-16T09:05:42;101354.66;;;18.69;63.89
78613;BME280;67933;51.060;3.638;2023-07-16T09:08:07;101370.19;;;18.65;63.85
78613;BME280;67933;51.060;3.638;2023-07-16T09:10:33;101371.69;;;18.58;63.61
78613;BME280;67933;51.060;3.638;2023-07-16T09:12:58;101379.34;;;18.52;64.70
78613;BME280;67933;51.060;3.638;2023-07-16T09:15:26;101388.53;;;18.38;64.94
78613;BME280;67933;51.060;3.638;2023-07-16T09:17:53;101416.91;;;18.08;69.41
78613;BME280;67933;51.060;3.638;2023-07-16T09:20:19;101415.97;;;17.52;74.30
78613;BME280;67933;51.060;3.638;2023-07-16T09:22:44;101413.53;;;17.03;77.79
78613;BME280;67933;51.060;3.638;2023-07-16T09:25:10;101419.00;;;16.78;76.10
78613;BME280;67933;51.060;3.638;2023-07-16T09:27:36;101423.81;;;16.97;75.27
78613;BME280;67933;51.060;3.638;2023-07-16T09:30:03;101419.34;;;17.32;72.02
78613;BME280;67933;51.060;3.638;2023-07-16T09:32:38;101420.06;;;17.80;72.36
78613;BME280;67933;51.060;3.638;2023-07-16T09:35:12;101418.66;;;18.53;68.46
78613;BME280;67933;51.060;3.638;2023-07-16T09:37:37;101419.69;;;18.95;66.14
78613;BME280;67933;51.060;3.638;2023-07-16T09:40:07;101425.97;;;19.05;63.22
78613;BME280;67933;51.060;3.638;2023-07-16T09:42:54;101429.19;;;19.51;60.87
78613;BME280;67933;51.060;3.638;2023-07-16T09:45:20;101429.00;;;20.55;57.02
78613;BME280;67933;51.060;3.638;2023-07-16T09:47:46;101421.38;;;21.57;54.29
78613;BME280;67933;51.060;3.638;2023-07-16T09:50:12;101432.56;;;21.81;53.57
78613;BME280;67933;51.060;3.638;2023-07-16T09:52:38;101433.56;;;22.26;54.01
78613;BME280;67933;51.060;3.638;2023-07-16T09:55:08;101438.03;;;22.45;52.22
78613;BME280;67933;51.060;3.638;2023-07-16T09:57:35;101436.94;;;23.01;51.34
78613;BME280;67933;51.060;3.638;2023-07-16T10:00:11;101437.47;;;22.87;48.19
78613;BME280;67933;51.060;3.638;2023-07-16T10:02:40;101448.66;;;22.19;51.67
78613;BME280;67933;51.060;3.638;2023-07-16T10:05:15;101445.28;;;22.08;51.70
78613;BME280;67933;51.060;3.638;2023-07-16T10:07:42;101442.59;;;21.42;53.58
78613;BME280;67933;51.060;3.638;2023-07-16T10:10:08;101445.00;;;21.35;53.39
78613;BME280;67933;51.060;3.638;2023-07-16T10:12:35;101435.56;;;20.91;55.48
78613;BME280;67933;51.060;3.638;2023-07-16T10:15:00;101442.34;;;20.57;55.46
78613;BME280;67933;51.060;3.638;2023-07-16T10:17:31;101441.84;;;22.70;50.90
78613;BME280;67933;51.060;3.638;2023-07-16T10:20:01;101440.81;;;23.52;50.45
78613;BME280;67933;51.060;3.638;2023-07-16T10:22:48;101445.44;;;23.41;47.43
78613;BME280;67933;51.060;3.638;2023-07-16T10:27:49;101448.09;;;24.29;46.60
78613;BME280;67933;51.060;3.638;2023-07-16T10:30:15;101442.31;;;24.32;46.92
78613;BME280;67933;51.060;3.638;2023-07-16T10:32:40;101447.13;;;23.86;46.58
78613;BME280;67933;51.060;3.638;2023-07-16T10:35:07;101461.91;;;25.02;45.65
78613;BME280;67933;51.060;3.638;2023-07-16T10:37:36;101460.72;;;24.46;43.53
78613;BME280;67933;51.060;3.638;2023-07-16T10:40:03;101461.75;;;23.67;46.77
78613;BME280;67933;51.060;3.638;2023-07-16T10:42:29;101461.91;;;24.51;45.36
78613;BME280;67933;51.060;3.638;2023-07-16T10:44:59;101451.53;;;24.39;44.14
78613;BME280;67933;51.060;3.638;2023-07-16T10:47:30;101458.69;;;24.56;45.68
78613;BME280;67933;51.060;3.638;2023-07-16T10:49:56;101454.81;;;25.25;43.32
78613;BME280;67933;51.060;3.638;2023-07-16T10:52:22;101455.66;;;24.59;44.83
78613;BME280;67933;51.060;3.638;2023-07-16T10:54:48;101450.38;;;25.48;44.22
78613;BME280;67933;51.060;3.638;2023-07-16T10:57:15;101443.09;;;25.41;43.22
78613;BME280;67933;51.060;3.638;2023-07-16T10:59:42;101457.06;;;24.71;44.51
78613;BME280;67933;51.060;3.638;2023-07-16T11:02:12;101451.56;;;23.08;48.17
78613;BME280;67933;51.060;3.638;2023-07-16T11:04:37;101472.88;;;24.76;45.33
78613;BME280;67933;51.060;3.638;2023-07-16T11:07:11;101452.56;;;24.96;43.69
78613;BME280;67933;51.060;3.638;2023-07-16T11:09:49;101442.09;;;25.74;41.87
78613;BME280;67933;51.060;3.638;2023-07-16T11:12:16;101437.50;;;25.26;44.38
78613;BME280;67933;51.060;3.638;2023-07-16T11:14:44;101448.50;;;25.97;40.14
78613;BME280;67933;51.060;3.638;2023-07-16T11:17:10;101440.91;;;25.44;41.21
78613;BME280;67933;51.060;3.638;2023-07-16T11:19:37;101448.94;;;23.52;46.65
78613;BME280;67933;51.060;3.638;2023-07-16T11:22:05;101457.03;;;22.53;47.61
78613;BME280;67933;51.060;3.638;2023-07-16T11:24:50;101457.09;;;22.07;49.84
78613;BME280;67933;51.060;3.638;2023-07-16T11:27:20;101454.22;;;22.18;50.64
78613;BME280;67933;51.060;3.638;2023-07-16T11:29:53;101459.31;;;21.65;52.34
78613;BME280;67933;51.060;3.638;2023-07-16T11:32:34;101460.34;;;21.25;54.56
78613;BME280;67933;51.060;3.638;2023-07-16T11:35:01;101472.38;;;20.83;54.53
78613;BME280;67933;51.060;3.638;2023-07-16T11:37:30;101477.44;;;20.66;55.90
78613;BME280;67933;51.060;3.638;2023-07-16T11:40:06;101476.00;;;20.62;58.20
78613;BME280;67933;51.060;3.638;2023-07-16T11:42:34;101468.41;;;21.16;57.51
78613;BME280;67933;51.060;3.638;2023-07-16T11:45:00;101456.72;;;23.98;49.20
78613;BME280;67933;51.060;3.638;2023-07-16T11:47:27;101452.59;;;25.12;45.43
78613;BME280;67933;51.060;3.638;2023-07-16T11:49:52;101457.78;;;26.11;43.27
78613;BME280;67933;51.060;3.638;2023-07-16T11:52:25;101458.53;;;27.14;41.23
78613;BME280;67933;51.060;3.638;2023-07-16T11:54:57;101454.88;;;27.44;40.13
78613;BME280;67933;51.060;3.638;2023-07-16T11:57:25;101452.69;;;26.32;42.06
78613;BME280;67933;51.060;3.638;2023-07-16T11:59:50;101458.53;;;25.56;43.68
78613;BME280;67933;51.060;3.638;2023-07-16T12:02:15;101458.03;;;25.93;40.36
78613;BME280;67933;51.060;3.638;2023-07-16T12:04:41;101455.50;;;26.47;39.53
78613;BME280;67933;51.060;3.638;2023-07-16T12:07:07;101457.25;;;26.71;38.06
78613;BME280;67933;51.060;3.638;2023-07-16T12:09:32;101460.47;;;27.05;39.08
78613;BME280;67933;51.060;3.638;2023-07-16T12:11:57;101449.22;;;27.08;38.24
78613;BME280;67933;51.060;3.638;2023-07-16T12:14:23;101460.75;;;27.79;37.16
78613;BME280;67933;51.060;3.638;2023-07-16T12:16:48;101448.69;;;25.55;38.76
78613;BME280;67933;51.060;3.638;2023-07-16T12:19:14;101457.75;;;24.73;42.04
78613;BME280;67933;51.060;3.638;2023-07-16T12:21:39;101461.81;;;24.01;43.84
78613;BME280;67933;51.060;3.638;2023-07-16T12:24:05;101460.97;;;23.75;43.32
78613;BME280;67933;51.060;3.638;2023-07-16T12:26:31;101454.34;;;23.34;43.67
78613;BME280;67933;51.060;3.638;2023-07-16T12:28:56;101460.47;;;24.81;41.19
78613;BME280;67933;51.060;3.638;2023-07-16T12:31:21;101446.66;;;25.74;38.81
78613;BME280;67933;51.060;3.638;2023-07-16T12:33:47;101471.28;;;24.65;40.39
78613;BME280;67933;51.060;3.638;2023-07-16T12:36:13;101461.03;;;23.83;42.55
78613;BME280;67933;51.060;3.638;2023-07-16T12:38:39;101464.88;;;23.19;44.70
78613;BME280;67933;51.060;3.638;2023-07-16T12:41:05;101465.88;;;22.73;45.75
78613;BME280;67933;51.060;3.638;2023-07-16T12:43:31;101472.66;;;22.59;45.67
78613;BME280;67933;51.060;3.638;2023-07-16T12:46:00;101466.84;;;22.27;46.13
78613;BME280;67933;51.060;3.638;2023-07-16T12:48:26;101467.13;;;22.24;47.77
78613;BME280;67933;51.060;3.638;2023-07-16T12:50:51;101480.13;;;22.48;46.35
78613;BME280;67933;51.060;3.638;2023-07-16T12:53:16;101473.94;;;22.55;46.27
78613;BME280;67933;51.060;3.638;2023-07-16T12:55:42;101474.69;;;22.48;45.24